CheckWX is a tool to help pilots better visualize weather data.  It is not intended as a substitute for an official pre-flight weather briefing.

17:41:01 UTC

KAGS TAF
Augusta Regional at Bush Field Airport
Augusta, Georgia, USA
KAGS 241726Z 2418/2518 20010G15KT P6SM SCT050 SCT250 FM250100 VRB03KT P6SM SCT050 BKN250 WS015/22025KT TEMPO 2510/2513 3SM BR BKN008 FM251500 22012G18KT P6SM BKN035

Mar-24@
18:00 UTC

Mar-24 @ 18:00 UTC

Mar-25@
01:00 UTC

Mar-25 @ 01:00 UTC

KAGS 241726Z 2418/2518 20010G15KT P6SM SCT050 SCT250
Wind
  • 200° at 10 KTS
  • {Gusting to 15 KTS
Cloud Levels
  • Scattered at 5,000' AGL
  • Scattered at 25,000' AGL

Mar-25@
01:00 UTC

Mar-25 @ 01:00 UTC

Mar-25@
15:00 UTC

Mar-25 @ 15:00 UTC

FM250100 VRB03KT P6SM SCT050 BKN250 WS015/22025KT

From

From Standard forecast or significant change

Wind
  • Variable at 3 KTS
Cloud Levels
  • Scattered at 5,000' AGL
  • Broken at 25,000' AGL

Mar-25@
10:00 UTC

Mar-25 @ 10:00 UTC

Mar-25@
13:00 UTC

Mar-25 @ 13:00 UTC

TEMPO 2510/2513 3SM BR BKN008

Temporary

Temporary Changes expected for less than half the time period

Conditions
Mist
Cloud Levels
  • Broken at 800' AGL

Mar-25@
15:00 UTC

Mar-25 @ 15:00 UTC

Mar-25@
18:00 UTC

Mar-25 @ 18:00 UTC

FM251500 22012G18KT P6SM BKN035

From

From Standard forecast or significant change

Wind
  • 220° at 12 KTS
  • {Gusting to 18 KTS
Cloud Levels
  • Broken at 3,500' AGL